Time;durP1;ratioP1;P1;durP2;ratioP2;P2;SDS_P1;SDS_P2;PMS_P1;PMS_P2;Temp;Humidity;BMP_temperature;BMP_pressure;BME280_temperature;BME280_humidity;BME280_pressure;Samples;Min_cycle;Max_cycle;Signal;HPM_P1;HPM_P2
2022/08/01 00:00:48;;;;;;;8.85;6.67;;;26.00;99.90;;;;;;1785064;79;21244;-77
2022/08/01 00:03:19;;;;;;;9.63;6.78;;;26.00;99.90;;;;;;1784847;79;21116;-77
2022/08/01 00:05:50;;;;;;;8.00;6.35;;;26.00;99.90;;;;;;1775222;79;21140;-77
2022/08/01 00:08:24;;;;;;;11.90;6.70;;;26.00;99.90;;;;;;1781857;79;21207;-77
2022/08/01 00:10:55;;;;;;;10.88;7.00;;;26.00;99.90;;;;;;1782365;79;21115;-78
2022/08/01 00:13:27;;;;;;;8.38;6.47;;;26.00;99.90;;;;;;1784542;79;21289;-77
2022/08/01 00:16:03;;;;;;;11.05;6.45;;;26.00;99.90;;;;;;1776640;79;21178;-77
2022/08/01 00:18:31;;;;;;;11.95;7.22;;;26.10;99.90;;;;;;1797179;79;21217;-79
2022/08/01 00:21:02;;;;;;;10.93;7.87;;;26.10;99.90;;;;;;1792633;79;21237;-78
2022/08/01 00:23:34;;;;;;;7.80;6.58;;;26.10;99.90;;;;;;1778976;79;21210;-79
2022/08/01 00:26:06;;;;;;;8.80;7.03;;;26.20;99.90;;;;;;1778179;79;22116;-79
2022/08/01 00:28:37;;;;;;;9.08;7.42;;;26.20;99.90;;;;;;1775366;79;21658;-78
2022/08/01 00:31:08;;;;;;;8.20;6.33;;;26.20;99.90;;;;;;1774156;79;21738;-79
2022/08/01 00:33:39;;;;;;;8.68;6.47;;;26.20;99.90;;;;;;1775895;79;21103;-80
2022/08/01 00:36:10;;;;;;;8.50;7.17;;;26.20;99.90;;;;;;1787895;79;21080;-78
2022/08/01 00:38:41;;;;;;;7.80;7.00;;;26.30;99.90;;;;;;1768062;79;21182;-78
2022/08/01 00:41:12;;;;;;;7.62;6.78;;;26.30;99.90;;;;;;1782902;79;21060;-71
2022/08/01 00:43:43;;;;;;;9.25;7.50;;;26.30;99.90;;;;;;1776570;79;21088;-71
2022/08/01 00:46:14;;;;;;;7.40;6.62;;;26.40;99.90;;;;;;1776573;79;21558;-71
2022/08/01 00:48:46;;;;;;;10.40;7.30;;;26.30;99.90;;;;;;1763237;80;21182;-71
2022/08/01 00:51:18;;;;;;;8.18;7.25;;;26.40;99.90;;;;;;1786995;79;21808;-71
2022/08/01 00:53:50;;;;;;;10.50;7.35;;;26.40;99.90;;;;;;1785222;79;21205;-71
2022/08/01 00:56:22;;;;;;;11.55;7.92;;;26.50;99.90;;;;;;1782470;79;21104;-72
2022/08/01 00:58:55;;;;;;;8.30;7.50;;;26.50;99.90;;;;;;1769895;80;21167;-71
2022/08/01 01:01:27;;;;;;;8.38;7.47;;;26.50;99.90;;;;;;1786696;79;21184;-72
2022/08/01 01:03:59;;;;;;;17.80;8.15;;;26.50;99.90;;;;;;1782655;79;21241;-71
2022/08/01 01:06:32;;;;;;;10.65;7.50;;;26.60;99.90;;;;;;1806051;79;21154;-72
2022/08/01 01:09:06;;;;;;;8.95;7.78;;;26.60;99.90;;;;;;1768476;80;21111;-71
2022/08/01 01:11:39;;;;;;;10.08;7.58;;;26.50;99.90;;;;;;1772477;79;21704;-72
2022/08/01 01:14:13;;;;;;;9.45;8.45;;;26.60;99.90;;;;;;1772235;79;21595;-72
2022/08/01 01:16:46;;;;;;;9.43;7.87;;;26.60;99.90;;;;;;1773811;79;21701;-71
2022/08/01 01:19:20;;;;;;;9.30;8.18;;;26.60;99.90;;;;;;1774681;79;21178;-71
2022/08/01 01:21:53;;;;;;;12.60;7.92;;;26.60;99.90;;;;;;1782513;79;21204;-71
2022/08/01 01:24:27;;;;;;;8.80;7.53;;;26.70;99.90;;;;;;1763199;79;21139;-71
2022/08/01 01:27:00;;;;;;;10.32;7.37;;;26.70;99.90;;;;;;1781711;79;21718;-71
2022/08/01 01:29:33;;;;;;;10.28;7.87;;;26.70;99.90;;;;;;1782120;79;21095;-70
2022/08/01 01:32:09;;;;;;;9.18;7.50;;;26.70;99.90;;;;;;1795247;79;21177;-71
2022/08/01 01:34:42;;;;;;;11.45;7.03;;;26.70;99.90;;;;;;1807442;79;21095;-71
2022/08/01 01:37:15;;;;;;;8.05;7.05;;;26.70;99.90;;;;;;1789074;79;21151;-71
2022/08/01 01:39:47;;;;;;;9.48;6.95;;;26.70;99.90;;;;;;1777281;79;21178;-70
2022/08/01 01:42:21;;;;;;;10.88;8.43;;;26.70;99.90;;;;;;1763490;79;21236;-71
2022/08/01 01:44:54;;;;;;;8.75;7.42;;;26.70;99.90;;;;;;1786565;79;21217;-71
2022/08/01 01:47:28;;;;;;;8.63;7.72;;;26.80;99.90;;;;;;1771066;80;21155;-70
2022/08/01 01:50:00;;;;;;;8.88;7.95;;;26.80;99.90;;;;;;1774442;80;21682;-70
2022/08/01 01:52:33;;;;;;;9.45;8.23;;;26.80;99.90;;;;;;1769513;80;21112;-70
2022/08/01 01:55:07;;;;;;;8.35;7.55;;;26.80;99.90;;;;;;1784434;79;21717;-70
2022/08/01 01:57:40;;;;;;;8.75;7.87;;;26.80;99.90;;;;;;1774512;79;21693;-70
2022/08/01 02:00:14;;;;;;;8.28;7.12;;;26.80;99.90;;;;;;1773131;80;21615;-70
2022/08/01 02:02:45;;;;;;;10.08;7.35;;;26.80;99.90;;;;;;1772615;79;21205;-71
2022/08/01 02:05:17;;;;;;;12.85;7.85;;;26.80;99.90;;;;;;1770838;80;21603;-71
2022/08/01 02:07:49;;;;;;;9.15;6.92;;;26.80;99.90;;;;;;1780970;79;21197;-70
2022/08/01 02:10:23;;;;;;;10.55;7.80;;;26.80;99.90;;;;;;1770353;79;21615;-71
2022/08/01 02:12:57;;;;;;;8.33;7.50;;;26.80;99.90;;;;;;1771140;80;21107;-71
2022/08/01 02:15:28;;;;;;;8.78;7.42;;;26.80;99.90;;;;;;1763381;79;21123;-71
2022/08/01 02:18:00;;;;;;;12.50;7.67;;;26.80;99.90;;;;;;1770259;79;21174;-71
2022/08/01 02:20:33;;;;;;;8.70;7.65;;;26.80;99.90;;;;;;1773894;80;21167;-71
2022/08/01 02:23:07;;;;;;;11.85;8.60;;;26.80;99.90;;;;;;1772989;79;21134;-71
2022/08/01 02:25:38;;;;;;;10.43;7.58;;;26.80;99.90;;;;;;1779363;79;21150;-71
2022/08/01 02:28:13;;;;;;;8.73;7.47;;;26.80;99.90;;;;;;1776838;79;21166;-71
2022/08/01 02:30:46;;;;;;;373.62;201.98;;;26.80;99.90;;;;;;1780506;79;21131;-70
2022/08/01 02:33:20;;;;;;;65.25;41.08;;;26.90;99.90;;;;;;1777062;79;21744;-70
2022/08/01 02:35:53;;;;;;;25.32;17.10;;;26.90;99.90;;;;;;1773663;79;21145;-71
2022/08/01 02:38:28;;;;;;;64.53;39.92;;;26.90;99.90;;;;;;1778218;79;21616;-71
2022/08/01 02:41:02;;;;;;;9.03;6.85;;;26.90;99.90;;;;;;1771387;80;21237;-70
2022/08/01 02:43:35;;;;;;;9.20;7.03;;;27.00;99.90;;;;;;1772711;80;21150;-70
2022/08/01 02:46:07;;;;;;;11.57;6.97;;;27.00;99.90;;;;;;1765246;79;21143;-70
2022/08/01 02:48:41;;;;;;;9.10;7.87;;;27.00;99.90;;;;;;1769447;79;21317;-70
2022/08/01 02:51:15;;;;;;;10.72;8.30;;;27.00;99.90;;;;;;1772039;79;21618;-70
2022/08/01 02:53:47;;;;;;;10.70;8.63;;;27.00;99.90;;;;;;1782156;79;21096;-70
2022/08/01 02:56:21;;;;;;;69.60;41.25;;;27.00;99.90;;;;;;1785570;79;21107;-70
2022/08/01 02:58:53;;;;;;;9.03;7.70;;;27.00;99.90;;;;;;1791796;79;21163;-70
2022/08/01 03:01:25;;;;;;;11.50;8.50;;;27.00;99.90;;;;;;1790701;78;21224;-70
2022/08/01 03:03:58;;;;;;;19.57;13.38;;;27.00;99.90;;;;;;1802161;78;21110;-69
2022/08/01 03:06:31;;;;;;;10.55;7.17;;;27.00;99.90;;;;;;1808071;79;21710;-70
2022/08/01 03:09:04;;;;;;;13.13;7.28;;;27.10;99.90;;;;;;1796488;79;21099;-69
2022/08/01 03:11:38;;;;;;;18.50;11.53;;;27.10;99.90;;;;;;1783780;78;22189;-70
2022/08/01 03:14:11;;;;;;;15.85;11.08;;;27.10;99.90;;;;;;1790668;79;21536;-71
2022/08/01 03:16:45;;;;;;;19.85;13.05;;;27.20;99.90;;;;;;1771213;80;21230;-71
2022/08/01 03:19:19;;;;;;;11.95;8.35;;;27.20;99.90;;;;;;1779181;80;21226;-70
2022/08/01 03:21:51;;;;;;;11.22;8.05;;;27.30;99.90;;;;;;1784538;79;21150;-71
2022/08/01 03:24:24;;;;;;;11.30;8.33;;;27.30;99.90;;;;;;1802845;78;21632;-70
2022/08/01 03:26:56;;;;;;;55.78;34.13;;;27.30;99.90;;;;;;1812653;78;21091;-71
2022/08/01 03:29:30;;;;;;;15.93;9.83;;;27.30;99.90;;;;;;1802336;78;21138;-71
2022/08/01 03:32:02;;;;;;;11.63;8.55;;;27.30;99.90;;;;;;1812381;78;21092;-71
2022/08/01 03:34:34;;;;;;;11.18;8.38;;;27.30;99.90;;;;;;1811981;78;21110;-71
2022/08/01 03:37:07;;;;;;;12.47;8.15;;;27.30;99.90;;;;;;1795040;78;21123;-71
2022/08/01 03:39:41;;;;;;;13.13;9.00;;;27.40;99.90;;;;;;1800476;78;22174;-71
2022/08/01 03:42:14;;;;;;;9.20;8.13;;;27.40;99.90;;;;;;1809300;79;21158;-71
2022/08/01 03:44:47;;;;;;;9.38;7.87;;;27.40;99.90;;;;;;1814298;78;21166;-71
2022/08/01 03:47:21;;;;;;;11.33;9.30;;;27.40;99.90;;;;;;1804877;78;21130;-70
2022/08/01 03:49:53;;;;;;;13.10;9.60;;;27.40;99.90;;;;;;1790712;79;21122;-70
2022/08/01 03:52:26;;;;;;;11.43;10.23;;;27.40;99.90;;;;;;1782554;79;21155;-71
2022/08/01 03:54:59;;;;;;;11.85;9.83;;;27.40;99.90;;;;;;1774151;79;21107;-70
2022/08/01 03:57:31;;;;;;;11.83;8.98;;;27.50;99.90;;;;;;1782134;79;21197;-71
2022/08/01 04:00:08;;;;;;;16.25;9.58;;;27.50;99.90;;;;;;1777287;79;21529;-72
2022/08/01 04:02:40;;;;;;;10.60;9.50;;;27.50;99.90;;;;;;1775247;79;21255;-71
2022/08/01 04:05:11;;;;;;;12.23;9.38;;;27.50;99.90;;;;;;1775112;79;21216;-71
2022/08/01 04:07:45;;;;;;;11.78;9.73;;;27.50;99.90;;;;;;1717156;83;21246;-71
2022/08/01 04:10:16;;;;;;;10.25;9.18;;;27.60;99.90;;;;;;1759908;80;21110;-71
2022/08/01 04:12:47;;;;;;;11.00;8.90;;;27.60;99.90;;;;;;1782205;78;21675;-70
2022/08/01 04:15:20;;;;;;;21.77;18.82;;;27.70;99.90;;;;;;1774785;79;21162;-70
2022/08/01 04:17:51;;;;;;;14.80;10.00;;;27.80;99.90;;;;;;1776629;79;21190;-71
2022/08/01 04:20:22;;;;;;;14.55;11.05;;;27.80;99.90;;;;;;1782614;78;21719;-70
2022/08/01 04:22:53;;;;;;;78.67;56.13;;;27.80;99.90;;;;;;1777296;79;21174;-71
2022/08/01 04:25:27;;;;;;;35.85;25.85;;;27.90;99.90;;;;;;1769147;80;21210;-70
2022/08/01 04:27:59;;;;;;;18.10;13.30;;;27.90;99.90;;;;;;1788350;79;21214;-70
2022/08/01 04:30:32;;;;;;;14.23;12.40;;;27.90;99.90;;;;;;1794600;79;21092;-70
2022/08/01 04:33:05;;;;;;;17.73;12.60;;;28.00;99.90;;;;;;1793942;78;21238;-70
2022/08/01 04:35:40;;;;;;;41.73;28.83;;;28.10;99.90;;;;;;1781943;79;21131;-71
2022/08/01 04:38:16;;;;;;;22.67;15.60;;;28.10;99.90;;;;;;1783898;79;21139;-71
2022/08/01 04:40:50;;;;;;;13.98;11.80;;;28.20;99.90;;;;;;1779075;78;21166;-71
2022/08/01 04:43:21;;;;;;;22.80;18.02;;;28.30;99.90;;;;;;1782556;79;21705;-70
2022/08/01 04:45:52;;;;;;;12.05;10.68;;;28.20;99.90;;;;;;1795058;78;21900;-71
2022/08/01 04:48:24;;;;;;;20.57;14.75;;;28.30;99.90;;;;;;1801135;78;21190;-71
2022/08/01 04:50:55;;;;;;;11.97;10.72;;;28.20;99.90;;;;;;1780253;78;21079;-71
2022/08/01 04:53:27;;;;;;;12.37;11.15;;;28.20;99.90;;;;;;1788692;79;21300;-71
2022/08/01 04:55:59;;;;;;;215.87;125.87;;;28.20;99.90;;;;;;1789437;79;21119;-70
2022/08/01 04:58:30;;;;;;;13.55;10.72;;;28.10;99.90;;;;;;1810706;79;21189;-71
2022/08/01 05:01:01;;;;;;;12.28;9.38;;;28.10;99.90;;;;;;1789873;79;21186;-71
2022/08/01 05:03:31;;;;;;;16.27;12.15;;;28.10;99.90;;;;;;1783783;79;21642;-71
2022/08/01 05:06:04;;;;;;;13.50;9.55;;;28.10;99.90;;;;;;1782479;79;21080;-71
2022/08/01 05:08:35;;;;;;;12.30;10.53;;;28.10;99.90;;;;;;1783715;79;21682;-70
2022/08/01 05:11:07;;;;;;;21.77;16.45;;;28.20;99.90;;;;;;1801098;79;21210;-70
2022/08/01 05:13:37;;;;;;;29.20;24.47;;;28.20;99.90;;;;;;1786708;79;21560;-70
2022/08/01 05:16:08;;;;;;;14.93;9.33;;;28.20;99.90;;;;;;1776352;79;21631;-71
2022/08/01 05:18:39;;;;;;;11.85;9.05;;;28.30;99.90;;;;;;1781149;79;21206;-70
2022/08/01 05:21:11;;;;;;;20.45;13.83;;;28.40;99.90;;;;;;1774921;79;21541;-71
2022/08/01 05:23:42;;;;;;;15.43;12.40;;;28.50;99.90;;;;;;1746148;81;21189;-70
2022/08/01 05:26:13;;;;;;;11.03;9.88;;;28.70;99.90;;;;;;1723905;82;21147;-71
2022/08/01 05:28:44;;;;;;;9.40;8.50;;;28.80;99.90;;;;;;1712153;82;21194;-71
2022/08/01 05:31:15;;;;;;;14.28;11.55;;;28.90;99.90;;;;;;1711884;82;21182;-72
2022/08/01 05:33:46;;;;;;;33.90;21.87;;;29.10;99.90;;;;;;1718998;82;21059;-71
2022/08/01 05:36:17;;;;;;;15.05;11.75;;;29.10;99.90;;;;;;1790002;79;21080;-72
2022/08/01 05:38:48;;;;;;;12.63;11.20;;;29.20;99.90;;;;;;1778142;79;21147;-72
2022/08/01 05:41:19;;;;;;;21.90;17.55;;;29.10;99.90;;;;;;1774788;79;21143;-70
2022/08/01 05:43:50;;;;;;;18.80;14.43;;;29.00;99.90;;;;;;1800079;79;21178;-70
2022/08/01 05:46:40;;;;;;;13.62;11.20;;;29.00;99.90;;;;;;1804353;79;21631;-71
2022/08/01 05:49:12;;;;;;;13.93;12.10;;;28.90;99.90;;;;;;1777402;80;21226;-70
2022/08/01 05:51:43;;;;;;;16.73;14.60;;;28.80;99.90;;;;;;1781033;79;21253;-70
2022/08/01 05:54:13;;;;;;;17.02;12.65;;;28.80;99.90;;;;;;1781616;79;21208;-71
2022/08/01 05:56:47;;;;;;;14.60;12.20;;;28.70;99.90;;;;;;1767118;80;21217;-70
2022/08/01 05:59:20;;;;;;;13.25;11.70;;;28.70;99.90;;;;;;1795846;79;21206;-70
2022/08/01 06:01:51;;;;;;;13.30;11.83;;;28.60;99.90;;;;;;1781142;79;21280;-71
2022/08/01 06:04:22;;;;;;;12.25;10.95;;;28.60;99.90;;;;;;1773769;79;21159;-70
2022/08/01 06:06:53;;;;;;;11.57;10.38;;;28.60;99.90;;;;;;1794183;79;21099;-70
2022/08/01 06:09:24;;;;;;;13.10;10.30;;;28.60;99.90;;;;;;1731273;81;21176;-70
2022/08/01 06:11:55;;;;;;;40.38;26.35;;;28.60;99.90;;;;;;1735011;81;21556;-70
2022/08/01 06:14:26;;;;;;;13.48;12.07;;;28.60;99.90;;;;;;1798487;79;21161;-71
2022/08/01 06:16:58;;;;;;;78.02;52.43;;;28.70;99.90;;;;;;1788614;79;21165;-70
2022/08/01 06:19:29;;;;;;;13.85;11.55;;;28.70;99.90;;;;;;1791571;79;21791;-70
2022/08/01 06:22:00;;;;;;;13.72;11.08;;;28.70;99.90;;;;;;1788607;79;21159;-70
2022/08/01 06:24:32;;;;;;;24.87;19.48;;;28.80;99.90;;;;;;1795856;79;21195;-71
2022/08/01 06:27:04;;;;;;;13.78;12.05;;;29.00;99.90;;;;;;1789305;79;21131;-70
2022/08/01 06:29:36;;;;;;;13.08;9.58;;;29.10;99.90;;;;;;1729318;81;21110;-71
2022/08/01 06:32:09;;;;;;;10.55;9.43;;;29.20;99.90;;;;;;1746554;81;21588;-71
2022/08/01 06:34:41;;;;;;;13.70;11.60;;;29.30;99.90;;;;;;1784139;79;21308;-71
2022/08/01 06:37:13;;;;;;;11.18;9.23;;;29.30;99.90;;;;;;1786871;79;21096;-71
2022/08/01 06:39:44;;;;;;;8.85;7.35;;;29.30;99.90;;;;;;1769278;80;21161;-71
2022/08/01 06:42:16;;;;;;;15.65;10.63;;;29.40;99.90;;;;;;1773428;80;21747;-71
2022/08/01 06:44:47;;;;;;;8.85;8.00;;;29.50;99.90;;;;;;1766051;80;22246;-70
2022/08/01 06:47:18;;;;;;;9.98;7.70;;;29.50;99.60;;;;;;1776245;80;21740;-71
2022/08/01 06:49:49;;;;;;;9.80;8.33;;;29.60;99.10;;;;;;1768829;80;22558;-71
2022/08/01 06:52:20;;;;;;;8.08;6.05;;;29.70;99.40;;;;;;1774663;80;21627;-70
2022/08/01 06:54:51;;;;;;;9.50;6.97;;;29.70;98.70;;;;;;1750983;82;21755;-71
2022/08/01 06:57:23;;;;;;;6.87;5.50;;;29.60;98.70;;;;;;1766105;80;21201;-71
2022/08/01 06:59:56;;;;;;;17.90;11.63;;;29.60;98.40;;;;;;1768007;81;21774;-71
2022/08/01 07:02:27;;;;;;;9.75;7.33;;;29.60;98.60;;;;;;1771532;80;21212;-71
2022/08/01 07:05:00;;;;;;;6.28;4.92;;;29.60;99.00;;;;;;1776759;81;21070;-71
2022/08/01 07:07:32;;;;;;;5.78;5.00;;;29.70;99.90;;;;;;1786894;80;21185;-69
2022/08/01 07:10:03;;;;;;;10.13;6.30;;;29.70;99.00;;;;;;1756446;81;21550;-70
2022/08/01 07:12:36;;;;;;;10.93;6.40;;;29.70;98.90;;;;;;1752084;81;21208;-70
2022/08/01 07:15:08;;;;;;;14.25;9.45;;;29.70;99.10;;;;;;1758024;80;21566;-72
2022/08/01 07:17:41;;;;;;;8.53;5.17;;;29.60;98.60;;;;;;1766963;81;21150;-71
2022/08/01 07:20:13;;;;;;;11.20;8.90;;;29.60;98.40;;;;;;1781923;80;21185;-71
2022/08/01 07:22:45;;;;;;;9.10;6.25;;;29.60;98.80;;;;;;1765466;81;21249;-70
2022/08/01 07:25:17;;;;;;;9.25;5.05;;;29.50;98.90;;;;;;1761072;80;21275;-70
2022/08/01 07:27:47;;;;;;;8.33;5.47;;;29.50;99.10;;;;;;1768854;80;21665;-70
2022/08/01 07:30:18;;;;;;;5.42;4.92;;;29.50;99.60;;;;;;1770654;79;21646;-71
2022/08/01 07:32:49;;;;;;;7.72;5.65;;;29.50;99.70;;;;;;1760487;81;21761;-71
2022/08/01 07:35:20;;;;;;;6.28;3.58;;;29.60;99.70;;;;;;1762205;81;21668;-70
2022/08/01 07:37:52;;;;;;;5.80;3.47;;;29.80;98.80;;;;;;1775064;80;21662;-71
2022/08/01 07:40:24;;;;;;;8.25;4.75;;;29.80;98.40;;;;;;1771198;80;21154;-70
2022/08/01 07:42:55;;;;;;;5.72;3.02;;;29.80;98.50;;;;;;1777056;81;21102;-71
2022/08/01 07:45:26;;;;;;;10.15;5.30;;;29.80;98.30;;;;;;1758607;80;21644;-71
2022/08/01 07:47:57;;;;;;;5.53;3.17;;;29.90;98.50;;;;;;1758228;81;21163;-71
2022/08/01 07:50:29;;;;;;;7.25;4.10;;;29.90;99.40;;;;;;1779028;80;21602;-70
2022/08/01 07:53:03;;;;;;;3.72;2.67;;;29.90;98.70;;;;;;1768938;80;21129;-71
2022/08/01 07:55:34;;;;;;;6.47;4.50;;;30.00;99.70;;;;;;1765369;81;21165;-71
2022/08/01 07:58:05;;;;;;;5.83;4.08;;;30.10;99.60;;;;;;1780699;80;21590;-70
2022/08/01 08:00:36;;;;;;;9.40;5.75;;;30.10;98.60;;;;;;1759316;81;21145;-70
2022/08/01 08:03:07;;;;;;;5.37;3.42;;;30.20;97.70;;;;;;1760286;80;21947;-71
2022/08/01 08:05:38;;;;;;;15.83;9.55;;;30.20;96.90;;;;;;1758160;81;21213;-72
2022/08/01 08:08:11;;;;;;;10.08;5.95;;;30.20;96.50;;;;;;1769163;80;21172;-71
2022/08/01 08:10:47;;;;;;;5.15;3.02;;;30.20;96.60;;;;;;1783046;80;21799;-72
2022/08/01 08:13:19;;;;;;;6.53;3.67;;;30.20;96.20;;;;;;1765820;81;21232;-70
2022/08/01 08:15:51;;;;;;;11.63;6.92;;;30.20;95.90;;;;;;1769620;80;21122;-71
2022/08/01 08:18:23;;;;;;;3.67;2.27;;;30.20;96.60;;;;;;1760485;80;21625;-70
2022/08/01 08:20:56;;;;;;;4.40;2.33;;;30.20;95.90;;;;;;1768098;80;21310;-69
2022/08/01 08:26:02;;;;;;;3.40;2.37;;;30.30;95.20;;;;;;1764095;80;21633;-70
2022/08/01 08:28:33;;;;;;;7.08;4.45;;;30.30;95.40;;;;;;1768005;80;21593;-70
2022/08/01 08:31:05;;;;;;;3.67;2.55;;;30.30;96.20;;;;;;1767298;81;21661;-70
2022/08/01 08:33:38;;;;;;;3.60;2.42;;;30.20;96.00;;;;;;1768981;80;21620;-70
2022/08/01 08:36:11;;;;;;;5.60;2.52;;;30.30;96.50;;;;;;1773799;80;21217;-70
2022/08/01 08:38:43;;;;;;;7.37;5.12;;;30.30;96.00;;;;;;1769996;80;21280;-72
2022/08/01 08:41:15;;;;;;;3.20;1.80;;;30.40;96.10;;;;;;1763615;81;21255;-69
2022/08/01 08:43:47;;;;;;;4.67;3.05;;;30.50;95.10;;;;;;1768349;80;21309;-71
2022/08/01 08:46:19;;;;;;;4.05;1.85;;;30.40;95.20;;;;;;1753502;81;21252;-70
2022/08/01 08:48:53;;;;;;;5.05;3.25;;;30.40;95.60;;;;;;1771931;80;21726;-69
2022/08/01 08:51:32;;;;;;;3.33;2.20;;;30.30;95.90;;;;;;1705410;82;21130;-69
2022/08/01 08:54:05;;;;;;;2.92;1.70;;;30.40;95.70;;;;;;1746171;81;21825;-70
2022/08/01 08:56:38;;;;;;;3.65;2.05;;;30.40;95.80;;;;;;1743914;81;21103;-70
2022/08/01 08:59:09;;;;;;;4.28;2.77;;;30.30;95.00;;;;;;1760963;81;21135;-70
2022/08/01 09:01:55;;;;;;;2.77;1.77;;;30.30;95.70;;;;;;1738997;80;21246;-70
2022/08/01 09:04:14;;;;;;;3.02;1.98;;;30.30;95.70;;;;;;1736481;81;21220;-70
2022/08/01 09:06:45;;;;;;;5.50;2.42;;;30.30;96.00;;;;;;1744976;81;21119;-70
2022/08/01 09:09:16;;;;;;;2.77;1.98;;;30.20;95.80;;;;;;1746963;81;21682;-72
2022/08/01 09:11:47;;;;;;;3.47;1.98;;;30.20;96.10;;;;;;1740360;81;21219;-70
2022/08/01 09:14:25;;;;;;;2.10;1.55;;;30.20;95.80;;;;;;1747702;81;21680;-71
2022/08/01 09:16:55;;;;;;;3.15;2.20;;;30.20;95.40;;;;;;1745570;81;21812;-71
2022/08/01 09:19:28;;;;;;;4.22;2.30;;;30.20;96.00;;;;;;1748012;80;21228;-70
2022/08/01 09:22:03;;;;;;;2.50;1.87;;;30.10;95.90;;;;;;1743843;81;21655;-70
2022/08/01 09:24:35;;;;;;;3.60;1.87;;;30.10;96.40;;;;;;1743549;81;21177;-70
2022/08/01 09:27:09;;;;;;;3.55;2.02;;;30.10;96.60;;;;;;1740730;81;21534;-70
2022/08/01 09:29:41;;;;;;;3.90;2.27;;;30.10;96.40;;;;;;1743815;81;21304;-70
2022/08/01 09:32:13;;;;;;;3.80;3.00;;;30.20;96.40;;;;;;1717719;83;21155;-69
2022/08/01 09:34:47;;;;;;;3.00;2.05;;;30.20;96.00;;;;;;1745238;82;21839;-70
2022/08/01 09:37:25;;;;;;;3.87;2.52;;;30.30;96.00;;;;;;1747553;81;21653;-69
2022/08/01 09:39:57;;;;;;;4.92;2.98;;;30.30;95.10;;;;;;1751406;81;21186;-70
2022/08/01 09:42:29;;;;;;;4.95;3.47;;;30.20;94.80;;;;;;1750531;81;21643;-70
2022/08/01 09:45:01;;;;;;;9.55;6.15;;;30.20;95.20;;;;;;1739391;81;21610;-70
2022/08/01 09:47:36;;;;;;;3.77;1.98;;;30.20;96.30;;;;;;1745724;81;21669;-70
2022/08/01 09:50:10;;;;;;;3.33;2.40;;;30.10;95.90;;;;;;1755002;81;21807;-69
2022/08/01 09:52:41;;;;;;;3.85;1.92;;;30.20;96.10;;;;;;1757566;81;21197;-69
2022/08/01 09:55:12;;;;;;;3.37;1.80;;;30.20;95.40;;;;;;1755646;81;21107;-71
2022/08/01 09:57:46;;;;;;;2.37;2.10;;;30.20;95.20;;;;;;1746740;82;21724;-71
2022/08/01 10:00:18;;;;;;;3.77;2.08;;;30.30;95.40;;;;;;1750221;81;21582;-71
2022/08/01 10:02:51;;;;;;;6.03;2.22;;;30.30;95.40;;;;;;1742311;80;21192;-70
2022/08/01 10:05:24;;;;;;;3.58;2.30;;;30.30;95.60;;;;;;1747562;81;21700;-69
2022/08/01 10:07:59;;;;;;;3.95;2.10;;;30.30;95.70;;;;;;1747361;81;21149;-70
2022/08/01 10:10:30;;;;;;;3.05;1.80;;;30.30;95.60;;;;;;1718145;82;21648;-70
2022/08/01 10:13:02;;;;;;;3.42;1.98;;;30.30;95.40;;;;;;1747640;81;21242;-70
2022/08/01 10:15:34;;;;;;;3.30;2.00;;;30.30;95.50;;;;;;1748061;82;21706;-70
2022/08/01 10:18:09;;;;;;;2.58;1.65;;;30.20;95.60;;;;;;1748793;80;21194;-71
2022/08/01 10:20:41;;;;;;;2.90;1.60;;;30.20;95.80;;;;;;1744833;81;21153;-70
2022/08/01 10:23:13;;;;;;;3.27;2.08;;;30.10;95.90;;;;;;1744354;82;21549;-70
2022/08/01 10:25:46;;;;;;;3.20;1.90;;;30.20;96.10;;;;;;1747505;81;21103;-69
2022/08/01 10:28:18;;;;;;;3.72;1.60;;;30.10;96.40;;;;;;1716579;82;21159;-71
2022/08/01 10:30:54;;;;;;;3.20;2.00;;;30.10;96.70;;;;;;1748047;81;21601;-69
2022/08/01 10:33:26;;;;;;;2.60;1.80;;;30.00;96.80;;;;;;1700097;83;21130;-71
2022/08/01 10:36:02;;;;;;;3.25;2.05;;;30.00;96.80;;;;;;1742510;81;21225;-71
2022/08/01 10:38:36;;;;;;;3.33;1.62;;;30.00;96.70;;;;;;1747089;81;21236;-70
2022/08/01 10:41:07;;;;;;;4.05;2.00;;;30.00;97.00;;;;;;1752704;81;21097;-70
2022/08/01 10:43:39;;;;;;;3.22;2.08;;;30.00;97.10;;;;;;1747082;81;21162;-70
2022/08/01 10:46:12;;;;;;;3.02;2.12;;;29.90;97.30;;;;;;1751317;81;21170;-68
2022/08/01 10:48:46;;;;;;;3.00;2.40;;;29.90;97.40;;;;;;1750252;81;21269;-69
2022/08/01 10:51:20;;;;;;;3.17;1.98;;;29.90;97.50;;;;;;1720983;82;21269;-70
2022/08/01 10:53:54;;;;;;;3.40;1.85;;;29.90;97.50;;;;;;1705534;83;21207;-81
2022/08/01 10:56:28;;;;;;;5.62;2.00;;;29.80;97.60;;;;;;1700283;83;21194;-80
2022/08/01 10:59:02;;;;;;;3.83;2.10;;;29.80;97.70;;;;;;1695868;84;21231;-83
2022/08/01 11:01:35;;;;;;;3.65;2.30;;;29.80;97.70;;;;;;1690914;84;21188;-81
2022/08/01 11:04:09;;;;;;;3.30;2.10;;;29.70;98.00;;;;;;1725432;82;21171;-81
2022/08/01 11:06:44;;;;;;;2.72;2.15;;;29.70;98.10;;;;;;1721601;82;21190;-80
2022/08/01 11:09:15;;;;;;;3.33;2.20;;;29.70;98.30;;;;;;1759506;80;21651;-83
2022/08/01 11:11:48;;;;;;;3.92;2.05;;;29.60;98.40;;;;;;1749292;80;21182;-83
2022/08/01 11:14:19;;;;;;;3.50;2.37;;;29.60;98.50;;;;;;1696059;83;21664;-81
2022/08/01 11:16:52;;;;;;;5.05;2.30;;;29.60;98.70;;;;;;1713478;83;21185;-81
2022/08/01 11:19:27;;;;;;;4.22;2.92;;;29.60;98.80;;;;;;1721919;82;21184;-80
2022/08/01 11:22:12;;;;;;;6.20;2.83;;;29.60;98.70;;;;;;1728327;83;21753;-81
2022/08/01 11:25:02;;;;;;;4.30;2.20;;;29.60;98.80;;;;;;1704295;82;21196;-83
2022/08/01 11:27:33;;;;;;;14.40;3.08;;;29.50;98.80;;;;;;1760815;81;21142;-81
2022/08/01 11:30:12;;;;;;;6.22;3.35;;;29.50;98.90;;;;;;1767666;77;21137;-84
2022/08/01 11:32:47;;;;;;;3.83;2.77;;;29.40;99.00;;;;;;1744999;77;21154;-83
2022/08/01 11:35:20;;;;;;;3.77;2.50;;;29.50;99.30;;;;;;1763857;75;21235;-81
2022/08/01 11:37:59;;;;;;;7.33;4.70;;;29.40;99.20;;;;;;1756649;77;21201;-81
2022/08/01 11:40:31;;;;;;;5.80;3.17;;;29.40;99.20;;;;;;1765208;76;21464;-85
2022/08/01 11:43:05;;;;;;;6.97;2.80;;;29.40;99.20;;;;;;1751474;78;21137;-81
2022/08/01 11:45:39;;;;;;;4.35;2.67;;;29.30;99.20;;;;;;1765744;80;21265;-81
2022/08/01 11:48:14;;;;;;;3.98;2.47;;;29.30;99.30;;;;;;1756248;80;21142;-84
2022/08/01 11:50:48;;;;;;;5.45;2.40;;;29.30;99.40;;;;;;1756187;80;21204;-81
2022/08/01 11:53:20;;;;;;;3.10;2.33;;;29.30;99.50;;;;;;1761541;80;21866;-80
2022/08/01 11:55:54;;;;;;;3.62;2.45;;;29.20;99.60;;;;;;1766602;80;21637;-80
2022/08/01 11:58:27;;;;;;;4.30;2.50;;;29.20;99.80;;;;;;1754644;81;21197;-81
2022/08/01 12:01:00;;;;;;;5.97;3.27;;;29.20;99.90;;;;;;1760962;81;21207;-81
2022/08/01 12:03:33;;;;;;;4.45;3.22;;;29.20;99.90;;;;;;1762899;80;21179;-83
2022/08/01 12:06:04;;;;;;;4.42;3.00;;;29.10;99.90;;;;;;1766108;80;21135;-81
2022/08/01 12:08:36;;;;;;;4.95;2.50;;;29.10;99.90;;;;;;1778411;79;21399;-82
2022/08/01 12:11:07;;;;;;;5.37;2.85;;;29.10;99.90;;;;;;1767996;80;21248;-81
2022/08/01 12:13:41;;;;;;;5.97;2.85;;;29.10;99.90;;;;;;1770753;80;21157;-80
2022/08/01 12:16:14;;;;;;;6.17;2.77;;;29.10;99.90;;;;;;1770430;80;21648;-80
2022/08/01 12:18:45;;;;;;;4.62;2.80;;;29.00;99.90;;;;;;1765316;81;21244;-80
2022/08/01 12:21:16;;;;;;;5.37;3.22;;;29.00;99.90;;;;;;1763305;80;21161;-81
2022/08/01 12:23:50;;;;;;;4.83;2.70;;;29.00;99.90;;;;;;1769483;79;21193;-79
2022/08/01 12:26:21;;;;;;;4.03;2.98;;;29.00;99.90;;;;;;1769838;79;21695;-80
2022/08/01 12:28:54;;;;;;;4.47;3.00;;;29.00;99.90;;;;;;1772570;79;21137;-82
2022/08/01 12:31:28;;;;;;;6.15;3.45;;;29.00;99.90;;;;;;1778477;80;21146;-80
2022/08/01 12:33:59;;;;;;;10.23;4.58;;;29.00;99.90;;;;;;1764822;80;21117;-81
2022/08/01 12:36:42;;;;;;;5.40;3.47;;;29.00;99.90;;;;;;1771763;80;21207;-80
2022/08/01 12:39:29;;;;;;;4.40;2.55;;;29.00;99.90;;;;;;1750177;81;21268;-81
2022/08/01 12:42:24;;;;;;;7.33;2.80;;;29.00;99.50;;;;;;1767749;79;21162;-80
2022/08/01 12:45:10;;;;;;;5.35;2.75;;;28.90;99.00;;;;;;1780919;79;21340;-80
2022/08/01 12:47:42;;;;;;;5.73;2.30;;;29.00;98.90;;;;;;1756371;81;21155;-81
2022/08/01 12:50:27;;;;;;;7.78;2.52;;;29.00;98.80;;;;;;1701502;83;21324;-80
2022/08/01 12:53:05;;;;;;;3.65;2.40;;;29.00;98.90;;;;;;1760173;79;21497;-81
2022/08/01 12:55:52;;;;;;;6.72;2.50;;;29.00;98.80;;;;;;1762942;80;21163;-80
2022/08/01 12:58:28;;;;;;;2.92;2.17;;;29.00;98.70;;;;;;1743635;80;21171;-79
2022/08/01 13:01:23;;;;;;;7.90;2.67;;;29.00;98.80;;;;;;1748431;80;21095;-80
2022/08/01 13:03:57;;;;;;;5.12;2.80;;;29.00;98.60;;;;;;1755179;80;21420;-82
2022/08/01 13:06:32;;;;;;;4.75;3.10;;;29.00;98.50;;;;;;1762057;80;21135;-80
2022/08/01 13:09:08;;;;;;;5.67;3.37;;;29.00;98.50;;;;;;1755951;80;21209;-79
2022/08/01 13:11:55;;;;;;;6.53;3.30;;;29.00;98.50;;;;;;1752880;80;21139;-79